SAZR/RSA METAR and TAF weather

Enter ICAO airport designator
Station Type Date Time Source
SAZR METAR 2019/10/07 17:21 UTC NOAA

SAZR 071721Z 20016G31KT 3000 BLDU FEW045 BKN100 15/M00 Q1017


Station Type Date Time Source
SAZR Decoded METAR 2019/10/07 17:21 UTC NOAA

Santa Rosa Aerodrome, Argentina (SAZR) 36-34S 064-16W 191M
Oct 07, 2019 - 01:21 PM EDT / 2019.10.07 1721 UTC
Wind: from the SSW (200 degrees) at 18 MPH (16 KT) gusting to 36 MPH (31 KT):0
Visibility: 1 mile(s):0
Sky conditions: mostly cloudy
Weather: blowing widespread dust
Temperature: 59 F (15 C)
Dew Point: 32 F (0 C)
Relative Humidity: 35%
Pressure (altimeter): 30.03 in. Hg (1017 hPa)
ob: SAZR 071721Z 20016G31KT 3000 BLDU FEW045 BKN100 15/M00 Q1017
cycle: 17

Station Type Date Time Source
SAZR TAF 2019/10/03 00:00 UTC NOAA

TAF SAZR 022300Z 0300/0324 09010KT CAVOK TX18/0319Z TN03/0310Z
BECMG 0302/0304 06015G25KT
BECMG 0313/0315 9999 SCT040 OVC070

Example: see airport list